Blythe, CA

11:39 AM PDT on July 24, 2016 (GMT -0700)
Blythe | | Change Station

Elev 397 ft 33.62 °N, 114.72 °W | Updated 47 minutes ago

Haze
Haze
98 °F
Feels Like 104 °F
N
16
Wind Variable Wind from SSE
Gusts 24 mph

Today
High -- | Low -- °F
--% Chance of Precip.
Yesterday
High -- | Low -- °F
Precip. -- in
Pressure 29.85 in
Visibility 6.0 miles
Clouds Mostly Cloudy 2500 ft
Overcast 3500 ft
Heat Index 104 °F
Dew Point 69 °F
Humidity 39%
Rainfall 0.00 in
Snow Depth Not available.
5:45 AM 7:44 PM
Waning Gibbous, 74% visible
METAR KBLH 241752Z AUTO 16014G21KT 6SM HZ BKN025 OVC035 37/21 A2987 RMK AO2 PK WND 17026/1656 SLP107 T03670206 10372 20311 50003
Pressure 29.85 in
Visibility 6.0 miles
Clouds Mostly Cloudy 2500 ft
Overcast 3500 ft
Heat Index 104 °F
Dew Point 69 °F
Humidity 39%
Rainfall 0.00 in
Snow Depth Not available.
5:45 AM 7:44 PM
Waning Gibbous, 74% visible
METAR KBLH 241752Z AUTO 16014G21KT 6SM HZ BKN025 OVC035 37/21 A2987 RMK AO2 PK WND 17026/1656 SLP107 T03670206 10372 20311 50003

10-Day Weather Forecast

Almanac

Astronomy

Jul. 24, 2016 Rise Set
Actual Time
Civil Twilight
Nautical Twilight
Astronomical Twilight
Moon
Length of Visible Light
Length of Day
Tomorrow will be .
, % of the Moon is Illuminated

Today's Extremes

State Highs State Lows

Community

WunderPhotos

Upload Photos

1,927,153 photos uploaded!

WunderBlog® & News

Nearby

Air Quality

  Air Quality AQ Index Pollutant
Not available.

Snow Depth

Station Depth Elevation

Earthquake Activity

City Distance Mag. Time & Date
Minimum magnitude displayed is 2.5.

Coastal Water Temperatures

Place Temperature

Stations

Nearby Weather Stations

Station Location Temp. Windchill Dew Point Humidity Wind Precip. Elev Updated Type
                   

Watches & Warnings

There are currently no watches in effect.